Pagrindinis puslapis
METAR-TAF:

METAR-TAF

Oro uostai :

Rygge, Norvegija

platuma: 59-23N, ilguma: 010-47E, Aukštis: 5 m

Dabartinis oras

Ataskaita buvo paskelbta 30 minutes, ne 12:50 UTC
Vėjas 2 kt nuo kintamojo kryptimis
Temperatūra 11°C
Drėgmė 37%
Slėgis 1020 hPa
Matomumas 10 km arba daugiau
nėra debesų žemiau 1500 m ir nėra kamuolinių lietaus debesų

METAR: ENRY 231250Z VRB02KT CAVOK 11/M03 Q1020

Laikas: 15:20 (13:20 UTC)

Prognozė

Prognozė galioja nuo 23 metu 12 UTC su 24 metu 12 UTC
Vėjas 5 kt nuo kintamojo kryptimis
Matomumas 10 km arba daugiau
nėra debesų žemiau 1500 m ir nėra kamuolinių lietaus debesų
Tapsmas
nuo 23 metu 15 UTC su 23 metu 18 UTC
Vėjas 10 kt iš Pietų
Laikinai
nuo 24 metu 03 UTC su 24 metu 12 UTC
Vėjas 15 kt iš Pietų/Pietvakarių su gūsio iki 25 kt
Su prošvaistėmis ne aukštis 1200 ft

TAF: ENRY 2312/2412 VRB05KT CAVOK BECMG 2315/2318 19010KT TEMPO 2403/2412 21015G25KT BKN012

Orai ataskaitas ir orų prognozės (METAR, TAF).

turimą stotys yra geltonos ir raudonos taškus žemėlapyje.

Perkelti pele per norėdami pamatyti stoties vardą.

Tada spustelėkite, norėdami matyti oro stebėjimo ir prognozės.

Norėdami pakeisti žemėlapį: spustelėkite ant žalios mygtukų su juodo kryžiaus žemyn,; žalią mygtuką su brūkšneliu, jei norite nutolinti; arba žalių rodyklių gretimoms žemėlapius.


METAR-TAF: